Omsk Central Airport
UNOO : now visible

Airfield :











YOU CAN JOIN US ON...

 
LOGIN :

Register | Disclaimer

   EN    FR    IT 

 









Legend :    VFR   Marginal VFR   IFR   Intensive IFR   Very Intensive IFR
Visi :
Ceiling :
>= 8 km
>= 3000ft
5 to 8 km
1000 to 3000 ft
1500m to 5 km
500 to 1000 ft
800 to 1500m
200 to 500 ft
< 800m
< 200 ft
Symbols :   Thunderstorms  Fog  Heavy snow  Heavy precipitations  Wind > 20 kt






- Airport Elevation : 311 ft
- IATA code : OMS


UNOO - Omsk Central

CURRENT METAR :
  • 031730Z 00000MPS 3700 FU NSC 00/M07 Q1029 R25/CLRD60 NOSIG RMK QFE763

EXPIRED METARs :
  • 031700Z 00000MPS 4800 FU NSC 01/M06 Q1029 R25/CLRD60 NOSIG RMK QFE763
  • 031630Z 18001MPS 4300 FU NSC 01/M06 Q1028 R25/CLRD60 NOSIG RMK QFE763
  • 031600Z 17001MPS 7000 3100SW FU NSC 01/M06 Q1028 R25/CLRD60 TEMPO 1000 FU RMK QFE763
  • 031530Z 16001MPS 7000 NSC 02/M06 Q1028 R25/CLRD60 TEMPO 1000 FU RMK QFE763
  • 031500Z 18002MPS 6000 2800SE FU NSC 03/M06 Q1028 R25/CLRD60 TEMPO 1000 FU RMK QFE762

TAF TAF UNOO
Valid from the 03 at 18:00 until the 04 at 18:00 UTC


031655Z 0318/0418 17003MPS 4000 FU SCT010
TEMPO 0318/0402 1000 FU
FM040400 14005G11MPS 9999 SCT033



MET'MAP, your aeronautical weather chart ! - Copyright ORBIFLY December 2007 - Disclaimer

ORBIFLY MET'MAP TEAM :

Programming & Development : Alexandra Zaïnal
Concept & original design : Baudouin d'Aumeries
Assistance for programming : Marc-Olivier Méhu
Technical & hardware support : Manuel Goepfert

Contact : metmap@orbifly.com




SOURCES & CREDITS :

   NOAA       Earth
Advisory